Shemah Yisrael!
Hear, O Israel: the LORD our God, the LORD is one.
You shall love the LORD your God with all your heart and with all your soul and with all your might.
(Deuteronomy 6:4-5)
Houston / Ellington, TX, United States (KEFD) 29-36N 095-10W
Jul 12, 2020 - 06:50 PM EDT / 2020.07.12 2250 UTC
Wind: from the S (180 degrees) at 5 MPH (4 KT):0
Visibility: 10 mile(s):0
Sky conditions: partly cloudy
Temperature: 96 F (36 C)
Heat index: 105.4 F (40.8 C):1
Dew Point: 73 F (23 C)
Relative Humidity: 47%
Pressure (altimeter): 29.86 in. Hg (1011 hPa)
ob: KEFD 122250Z 18004KT 10SM FEW040 SCT250 36/23 A2986 
cycle: 23
w e b m a s t e r   a t   s h e m a h   d o t   n e t